createdAt,value
2018-07-30T00:00:58.961Z,5.80
2018-07-30T00:03:25.944Z,5.50
2018-07-30T00:05:53.114Z,6.27
2018-07-30T00:08:20.161Z,6.00
2018-07-30T00:10:47.134Z,5.17
2018-07-30T00:13:14.105Z,5.90
2018-07-30T00:15:41.110Z,6.10
2018-07-30T00:18:08.104Z,6.20
2018-07-30T00:20:35.093Z,5.93
2018-07-30T00:23:02.097Z,6.17
2018-07-30T00:25:29.117Z,6.00
2018-07-30T00:27:56.081Z,6.23
2018-07-30T00:30:23.161Z,6.37
2018-07-30T00:32:50.257Z,5.87
2018-07-30T00:35:17.273Z,6.03
2018-07-30T00:37:44.253Z,6.60
2018-07-30T00:40:15.223Z,6.27
2018-07-30T00:42:43.319Z,6.10
2018-07-30T00:45:10.650Z,6.40
2018-07-30T00:47:37.613Z,6.77
2018-07-30T00:50:04.826Z,6.13
2018-07-30T00:52:31.905Z,5.90
2018-07-30T00:54:59.003Z,6.43
2018-07-30T00:57:25.924Z,5.90
2018-07-30T00:59:52.905Z,6.37
2018-07-30T01:02:19.892Z,7.27
2018-07-30T01:04:46.909Z,7.30
2018-07-30T01:07:14.209Z,6.23
2018-07-30T01:09:41.233Z,6.67
2018-07-30T01:12:08.225Z,6.40
2018-07-30T01:14:35.375Z,6.47
2018-07-30T01:17:02.358Z,6.80
2018-07-30T01:19:29.393Z,7.53
2018-07-30T01:21:56.374Z,6.60
2018-07-30T01:24:23.629Z,6.07
2018-07-30T01:26:50.605Z,7.07
2018-07-30T01:29:17.610Z,6.40
2018-07-30T01:31:44.600Z,7.17
2018-07-30T01:34:11.621Z,7.50
2018-07-30T01:36:38.597Z,7.40
2018-07-30T01:39:06.878Z,7.50
2018-07-30T01:41:33.885Z,7.00
2018-07-30T01:44:00.870Z,6.70
2018-07-30T01:46:27.892Z,7.70
2018-07-30T01:48:54.854Z,6.87
2018-07-30T01:51:21.861Z,7.97
2018-07-30T01:53:48.954Z,7.10
2018-07-30T01:56:15.515Z,7.00
2018-07-30T01:58:42.478Z,7.13
2018-07-30T02:01:09.654Z,6.90
2018-07-30T02:03:36.694Z,7.53
2018-07-30T02:06:03.737Z,7.63
2018-07-30T02:08:30.795Z,7.17
2018-07-30T02:10:57.793Z,7.50
2018-07-30T02:13:24.773Z,6.80
2018-07-30T02:15:51.825Z,7.30
2018-07-30T02:18:18.789Z,7.27
2018-07-30T02:20:45.887Z,8.20
2018-07-30T02:23:12.886Z,7.77
2018-07-30T02:25:39.973Z,8.90
2018-07-30T02:28:07.091Z,7.57
2018-07-30T02:30:34.137Z,8.40
2018-07-30T02:33:01.089Z,7.60
2018-07-30T02:35:28.098Z,7.37
2018-07-30T02:37:55.137Z,7.83
2018-07-30T02:40:22.201Z,7.20
2018-07-30T02:42:49.197Z,7.80
2018-07-30T02:45:16.189Z,8.00
2018-07-30T02:47:43.153Z,7.40
2018-07-30T02:50:10.146Z,7.50
2018-07-30T02:52:37.153Z,7.37
2018-07-30T02:55:04.172Z,8.10
2018-07-30T02:57:31.222Z,8.40
2018-07-30T02:59:58.176Z,8.53
2018-07-30T03:02:25.168Z,8.43
2018-07-30T03:04:52.158Z,7.67
2018-07-30T03:07:19.434Z,8.30
2018-07-30T03:09:46.397Z,7.70
2018-07-30T03:12:13.398Z,9.37
2018-07-30T03:14:40.393Z,7.83
2018-07-30T03:17:07.930Z,8.40
2018-07-30T03:19:34.915Z,7.97
2018-07-30T03:22:01.944Z,8.17
2018-07-30T03:24:28.937Z,8.03
2018-07-30T03:26:55.929Z,8.83
2018-07-30T03:29:22.920Z,7.90
2018-07-30T03:31:49.921Z,8.37
2018-07-30T03:34:16.954Z,8.03
2018-07-30T03:36:43.972Z,7.90
2018-07-30T03:39:10.965Z,8.63
2018-07-30T03:41:38.077Z,8.60
2018-07-30T03:44:05.293Z,9.00
2018-07-30T03:46:32.351Z,8.30
2018-07-30T03:48:59.418Z,8.23
2018-07-30T03:51:26.421Z,8.60
2018-07-30T03:53:53.473Z,8.10
2018-07-30T03:56:20.792Z,8.73
2018-07-30T03:58:47.761Z,8.00
2018-07-30T04:01:14.778Z,8.43
2018-07-30T04:03:41.749Z,7.83
2018-07-30T04:06:08.823Z,8.60
2018-07-30T04:08:35.977Z,7.80
2018-07-30T04:11:03.012Z,8.77
2018-07-30T04:13:29.989Z,8.60
2018-07-30T04:15:57.001Z,7.87
2018-07-30T04:18:24.009Z,8.03
2018-07-30T04:20:51.005Z,7.60
2018-07-30T04:23:18.005Z,8.80
2018-07-30T04:25:44.994Z,7.90
2018-07-30T04:28:12.002Z,8.20
2018-07-30T04:30:39.008Z,7.87
2018-07-30T04:33:06.117Z,8.03
2018-07-30T04:35:33.085Z,8.40
2018-07-30T04:38:00.066Z,7.80
2018-07-30T04:40:27.049Z,6.93
2018-07-30T04:42:54.062Z,7.73
2018-07-30T04:45:21.045Z,8.63
2018-07-30T04:47:48.185Z,7.97
2018-07-30T04:50:15.188Z,8.00
2018-07-30T04:52:42.189Z,8.83
2018-07-30T04:55:09.214Z,7.90
2018-07-30T04:57:36.204Z,8.23
2018-07-30T05:00:03.749Z,7.67
2018-07-30T05:02:30.741Z,8.00
2018-07-30T05:04:57.714Z,8.53
2018-07-30T05:07:24.753Z,8.10
2018-07-30T05:09:51.992Z,8.20
2018-07-30T05:12:19.004Z,7.53
2018-07-30T05:14:45.989Z,7.50
2018-07-30T05:17:12.965Z,7.23
2018-07-30T05:19:39.972Z,7.60
2018-07-30T05:22:07.041Z,7.37
2018-07-30T05:24:34.041Z,7.30
2018-07-30T05:27:01.066Z,7.77
2018-07-30T05:29:28.092Z,7.60
2018-07-30T05:31:55.080Z,7.73
2018-07-30T05:34:22.045Z,6.63
2018-07-30T05:36:49.070Z,7.00
2018-07-30T05:39:16.037Z,7.60
2018-07-30T05:41:43.033Z,7.20
2018-07-30T05:44:10.058Z,7.17
2018-07-30T05:46:37.049Z,6.70
2018-07-30T05:49:04.290Z,7.63
2018-07-30T05:51:31.289Z,7.33
2018-07-30T05:53:58.289Z,7.10
2018-07-30T05:56:25.281Z,6.43
2018-07-30T05:58:52.274Z,7.10
2018-07-30T06:01:19.248Z,6.47
2018-07-30T06:03:46.297Z,6.83
2018-07-30T06:06:13.269Z,6.87
2018-07-30T06:08:40.278Z,7.13
2018-07-30T06:11:07.270Z,7.63
2018-07-30T06:13:34.257Z,7.10
2018-07-30T06:16:01.242Z,6.57
2018-07-30T06:18:28.245Z,7.20
2018-07-30T06:20:55.415Z,6.93
2018-07-30T06:23:22.406Z,7.70
2018-07-30T06:25:49.430Z,7.50
2018-07-30T06:28:16.467Z,6.73
2018-07-30T06:30:43.561Z,7.20
2018-07-30T06:33:10.569Z,7.57
2018-07-30T06:35:37.583Z,6.90
2018-07-30T06:38:04.585Z,7.47
2018-07-30T06:40:31.556Z,7.03
2018-07-30T06:42:58.549Z,7.67
2018-07-30T06:45:25.493Z,6.10
2018-07-30T06:47:52.485Z,5.93
2018-07-30T06:50:19.472Z,6.97
2018-07-30T06:52:46.577Z,6.90
2018-07-30T06:55:13.550Z,5.93
2018-07-30T06:57:40.549Z,5.63
2018-07-30T07:00:09.046Z,5.20
2018-07-30T07:02:36.114Z,5.70
2018-07-30T07:05:03.177Z,5.10
2018-07-30T07:07:30.181Z,5.40
2018-07-30T07:09:57.130Z,4.73
2018-07-30T07:12:24.109Z,5.23
2018-07-30T07:14:51.096Z,4.70
2018-07-30T07:17:18.094Z,5.50
2018-07-30T07:19:45.101Z,5.30
2018-07-30T07:22:12.397Z,4.80
2018-07-30T07:24:39.374Z,5.83
2018-07-30T07:27:06.538Z,4.47
2018-07-30T07:29:33.402Z,4.27
2018-07-30T07:32:00.381Z,5.23
2018-07-30T07:34:27.341Z,4.97
2018-07-30T07:36:54.353Z,5.70
2018-07-30T07:39:21.329Z,5.60
2018-07-30T07:41:48.365Z,5.47
2018-07-30T07:44:15.349Z,4.70
2018-07-30T07:46:42.355Z,5.00
2018-07-30T07:49:09.333Z,5.53
2018-07-30T07:51:36.346Z,5.03
2018-07-30T07:54:03.341Z,5.20
2018-07-30T07:56:30.377Z,5.43
2018-07-30T07:58:57.357Z,5.30
2018-07-30T08:01:24.345Z,5.20
2018-07-30T08:03:51.450Z,5.47
2018-07-30T08:06:18.491Z,5.20
2018-07-30T08:08:45.437Z,5.20
2018-07-30T08:11:12.434Z,4.70
2018-07-30T08:13:39.418Z,5.30
2018-07-30T08:16:06.404Z,4.97
2018-07-30T08:18:33.406Z,5.07
2018-07-30T08:21:00.377Z,5.30
2018-07-30T08:23:27.389Z,5.20
2018-07-30T08:25:54.395Z,5.10
2018-07-30T08:28:21.393Z,5.47
2018-07-30T08:30:48.413Z,5.10
2018-07-30T08:33:15.429Z,5.30
2018-07-30T08:35:42.413Z,4.93
2018-07-30T08:38:09.430Z,4.93
2018-07-30T08:40:36.413Z,5.60
2018-07-30T08:43:03.369Z,4.50
2018-07-30T08:45:30.401Z,5.03
2018-07-30T08:47:57.489Z,5.00
2018-07-30T08:50:24.490Z,4.90
2018-07-30T08:52:51.485Z,5.20
2018-07-30T08:55:18.442Z,5.20
2018-07-30T08:57:45.480Z,4.83
2018-07-30T09:00:12.481Z,5.07
2018-07-30T09:02:39.473Z,4.77
2018-07-30T09:05:06.737Z,4.23
2018-07-30T09:07:33.754Z,4.47
2018-07-30T09:10:00.718Z,3.90
2018-07-30T09:12:27.772Z,4.50
2018-07-30T09:14:54.731Z,4.30
2018-07-30T09:17:21.693Z,4.60
2018-07-30T09:19:48.681Z,4.80
2018-07-30T09:22:15.661Z,3.60
2018-07-30T09:24:42.645Z,3.90
2018-07-30T09:27:09.664Z,3.53
2018-07-30T09:29:36.932Z,3.87
2018-07-30T09:32:04.291Z,4.20
2018-07-30T09:34:31.401Z,4.17
2018-07-30T09:36:58.377Z,4.57
2018-07-30T09:39:25.415Z,4.03
2018-07-30T09:41:52.393Z,3.40
2018-07-30T09:44:19.486Z,4.27
2018-07-30T09:46:46.518Z,3.87
2018-07-30T09:49:13.509Z,3.43
2018-07-30T09:51:40.477Z,4.00
2018-07-30T09:54:07.514Z,3.90
2018-07-30T09:56:34.453Z,3.13
2018-07-30T09:59:01.467Z,4.37
2018-07-30T10:01:29.549Z,4.00
2018-07-30T10:03:57.532Z,4.30
2018-07-30T10:06:24.670Z,3.90
2018-07-30T10:08:51.776Z,3.70
2018-07-30T10:11:18.940Z,4.00
2018-07-30T10:13:45.925Z,4.13
2018-07-30T10:16:12.945Z,3.93
2018-07-30T10:18:39.925Z,3.30
2018-07-30T10:21:07.069Z,3.80
2018-07-30T10:23:34.064Z,3.40
2018-07-30T10:26:01.065Z,3.53
2018-07-30T10:28:28.092Z,3.67
2018-07-30T10:30:55.085Z,4.10
2018-07-30T10:33:22.073Z,3.90
2018-07-30T10:35:49.066Z,3.40
2018-07-30T10:38:16.405Z,3.07
2018-07-30T10:40:43.446Z,3.07
2018-07-30T10:43:10.437Z,3.83
2018-07-30T10:45:37.518Z,3.97
2018-07-30T10:48:04.537Z,3.57
2018-07-30T10:50:31.557Z,3.60
2018-07-30T10:52:58.534Z,3.87
2018-07-30T10:55:25.528Z,3.57
2018-07-30T10:57:52.537Z,3.77
2018-07-30T11:00:19.525Z,3.70
2018-07-30T11:02:46.510Z,3.93
2018-07-30T11:05:13.508Z,3.63
2018-07-30T11:07:40.570Z,3.57
2018-07-30T11:10:07.593Z,4.00
2018-07-30T11:12:34.582Z,3.60
2018-07-30T11:15:01.935Z,3.60
2018-07-30T11:17:28.920Z,4.27
2018-07-30T11:19:55.905Z,3.90
2018-07-30T11:22:22.945Z,3.90
2018-07-30T11:24:49.962Z,3.73
2018-07-30T11:27:17.043Z,3.80
2018-07-30T11:29:44.060Z,3.47
2018-07-30T11:32:11.042Z,4.10
2018-07-30T11:34:38.085Z,4.00
2018-07-30T11:37:05.073Z,3.40
2018-07-30T11:39:32.066Z,3.90
2018-07-30T11:41:59.453Z,3.93
2018-07-30T11:44:26.471Z,3.93
2018-07-30T11:46:53.465Z,3.80
2018-07-30T11:49:20.560Z,3.73
2018-07-30T11:51:47.569Z,4.07
2018-07-30T11:54:14.564Z,3.70
2018-07-30T11:56:41.591Z,3.63
2018-07-30T11:59:08.705Z,4.10
2018-07-30T12:01:35.668Z,4.03
2018-07-30T12:04:02.684Z,5.37
2018-07-30T12:06:29.945Z,4.00
2018-07-30T12:08:57.318Z,3.60
2018-07-30T12:11:24.293Z,4.10
2018-07-30T12:13:51.272Z,4.40
2018-07-30T12:16:18.269Z,4.27
2018-07-30T12:18:45.249Z,4.70
2018-07-30T12:21:12.277Z,4.27
2018-07-30T12:23:39.280Z,3.60
2018-07-30T12:26:06.298Z,3.77
2018-07-30T12:28:33.267Z,4.10
2018-07-30T12:31:00.287Z,3.63
2018-07-30T12:33:27.258Z,4.03
2018-07-30T12:35:54.448Z,4.10
2018-07-30T12:38:21.416Z,3.73
2018-07-30T12:40:48.425Z,4.00
2018-07-30T12:43:15.469Z,4.40
2018-07-30T12:45:44.244Z,4.50
2018-07-30T12:48:11.464Z,3.40
2018-07-30T12:50:38.528Z,3.50
2018-07-30T12:53:05.528Z,3.53
2018-07-30T12:55:32.813Z,3.73
2018-07-30T12:57:59.795Z,4.13
2018-07-30T13:00:27.133Z,4.10
2018-07-30T13:02:54.145Z,3.97
2018-07-30T13:05:21.121Z,3.80
2018-07-30T13:07:48.089Z,3.63
2018-07-30T13:10:15.093Z,3.73
2018-07-30T13:12:42.119Z,3.33
2018-07-30T13:15:09.513Z,3.53
2018-07-30T13:17:36.538Z,3.80
2018-07-30T13:20:04.085Z,3.43
2018-07-30T13:22:31.093Z,4.00
2018-07-30T13:24:58.073Z,3.50
2018-07-30T13:27:25.074Z,4.40
2018-07-30T13:29:52.060Z,3.30
2018-07-30T13:32:19.068Z,3.70
2018-07-30T13:34:46.105Z,3.73
2018-07-30T13:37:13.109Z,4.57
2018-07-30T13:39:40.077Z,4.03
2018-07-30T13:42:07.153Z,3.83
2018-07-30T13:44:34.170Z,4.00
2018-07-30T13:47:01.181Z,4.40
2018-07-30T13:49:28.165Z,3.57
2018-07-30T13:51:55.165Z,4.30
2018-07-30T13:54:22.215Z,3.93
2018-07-30T13:56:49.202Z,3.60
2018-07-30T13:59:16.260Z,3.73
2018-07-30T14:01:43.261Z,4.13
2018-07-30T14:04:10.233Z,4.73
2018-07-30T14:06:37.338Z,3.90
2018-07-30T14:09:07.425Z,3.90
2018-07-30T14:11:34.625Z,4.00
2018-07-30T14:14:01.605Z,3.87
2018-07-30T14:16:28.587Z,3.27
2018-07-30T14:18:55.552Z,3.87
2018-07-30T14:21:22.653Z,4.57
2018-07-30T14:23:49.657Z,3.90
2018-07-30T14:26:16.809Z,4.83
2018-07-30T14:28:43.804Z,4.33
2018-07-30T14:31:10.837Z,5.07
2018-07-30T14:33:37.806Z,3.77
2018-07-30T14:36:04.841Z,4.40
2018-07-30T14:38:31.821Z,4.40
2018-07-30T14:40:58.852Z,4.00
2018-07-30T14:43:25.868Z,5.07
2018-07-30T14:45:52.908Z,4.20
2018-07-30T14:48:20.105Z,4.13
2018-07-30T14:50:47.093Z,3.93
2018-07-30T14:53:14.113Z,4.27
2018-07-30T14:55:41.118Z,4.10
2018-07-30T14:58:08.117Z,4.43
2018-07-30T15:00:35.099Z,4.30
2018-07-30T15:03:02.085Z,4.37
2018-07-30T15:05:29.081Z,4.70
2018-07-30T15:07:56.069Z,3.90
2018-07-30T15:10:23.056Z,3.60
2018-07-30T15:12:50.366Z,4.20
2018-07-30T15:15:17.328Z,4.50
2018-07-30T15:17:44.428Z,4.43
2018-07-30T15:20:11.478Z,4.30
2018-07-30T15:22:38.509Z,3.70
2018-07-30T15:25:05.873Z,4.07
2018-07-30T15:27:32.969Z,4.30
2018-07-30T15:30:00.080Z,4.50
2018-07-30T15:32:27.673Z,3.90
2018-07-30T15:34:54.786Z,4.73
2018-07-30T15:37:21.778Z,4.03
2018-07-30T15:39:49.281Z,5.20
2018-07-30T15:42:16.345Z,4.43
2018-07-30T15:44:43.328Z,4.37
2018-07-30T15:47:10.516Z,4.13
2018-07-30T15:49:37.493Z,4.20
2018-07-30T15:52:04.548Z,3.63
2018-07-30T15:54:31.541Z,4.30
2018-07-30T15:56:58.561Z,4.40
2018-07-30T15:59:25.537Z,4.40
2018-07-30T16:01:52.559Z,4.70
2018-07-30T16:04:19.548Z,4.40
2018-07-30T16:06:46.676Z,3.80
2018-07-30T16:09:13.656Z,4.10
2018-07-30T16:11:40.663Z,4.53
2018-07-30T16:14:07.660Z,4.33
2018-07-30T16:16:34.662Z,4.20
2018-07-30T16:19:01.787Z,4.20
2018-07-30T16:21:28.873Z,4.03
2018-07-30T16:23:55.922Z,3.93
2018-07-30T16:26:22.906Z,4.30
2018-07-30T16:28:49.905Z,4.40
2018-07-30T16:31:16.902Z,4.10
2018-07-30T16:33:43.913Z,4.87
2018-07-30T16:36:10.945Z,4.60
2018-07-30T16:38:37.933Z,4.37
2018-07-30T16:41:05.063Z,4.07
2018-07-30T16:43:32.237Z,3.83
2018-07-30T16:45:59.229Z,4.50
2018-07-30T16:48:26.444Z,4.20
2018-07-30T16:50:54.269Z,4.40
2018-07-30T16:53:21.321Z,4.23
2018-07-30T16:55:48.904Z,4.50
2018-07-30T16:58:16.185Z,4.00
2018-07-30T17:00:43.174Z,4.43
2018-07-30T17:03:10.220Z,4.80
2018-07-30T17:05:37.216Z,4.30
2018-07-30T17:08:04.792Z,3.90
2018-07-30T17:10:31.777Z,4.90
2018-07-30T17:12:58.780Z,4.90
2018-07-30T17:15:25.780Z,5.27
2018-07-30T17:17:52.775Z,4.10
2018-07-30T17:20:19.769Z,4.63
2018-07-30T17:22:46.777Z,4.20
2018-07-30T17:25:13.799Z,3.80
2018-07-30T17:27:40.798Z,4.33
2018-07-30T17:30:08.956Z,4.33
2018-07-30T17:32:35.929Z,4.53
2018-07-30T17:35:03.021Z,4.27
2018-07-30T17:37:30.022Z,5.07
2018-07-30T17:39:57.023Z,4.30
2018-07-30T17:42:24.049Z,4.33
2018-07-30T17:44:51.280Z,4.50
2018-07-30T17:47:18.370Z,4.43
2018-07-30T17:49:45.385Z,4.40
2018-07-30T17:52:12.361Z,4.40
2018-07-30T17:54:39.377Z,4.80
2018-07-30T17:57:06.369Z,4.30
2018-07-30T17:59:33.605Z,4.50
2018-07-30T18:02:00.751Z,4.80
2018-07-30T18:04:27.745Z,4.90
2018-07-30T18:06:54.725Z,4.50
2018-07-30T18:09:21.879Z,4.20
2018-07-30T18:11:48.869Z,4.90
2018-07-30T18:14:16.001Z,4.37
2018-07-30T18:16:43.003Z,4.53
2018-07-30T18:19:10.089Z,4.67
2018-07-30T18:21:37.085Z,4.50
2018-07-30T18:24:04.184Z,4.30
2018-07-30T18:26:31.176Z,4.43
2018-07-30T18:28:58.193Z,5.00
2018-07-30T18:31:25.208Z,4.10
2018-07-30T18:33:52.210Z,4.50
2018-07-30T18:36:19.191Z,4.40
2018-07-30T18:38:46.205Z,4.57
2018-07-30T18:41:13.605Z,4.90
2018-07-30T18:43:40.790Z,4.40
2018-07-30T18:46:07.805Z,4.53
2018-07-30T18:48:34.802Z,5.13
2018-07-30T18:51:01.821Z,4.60
2018-07-30T18:53:28.801Z,5.20
2018-07-30T18:55:55.829Z,5.43
2018-07-30T18:58:22.841Z,5.20
2018-07-30T19:00:49.897Z,4.83
2018-07-30T19:03:17.024Z,4.97
2018-07-30T19:05:44.029Z,5.27
2018-07-30T19:08:11.026Z,5.20
2018-07-30T19:10:38.052Z,5.17
2018-07-30T19:13:05.025Z,5.70
2018-07-30T19:15:32.041Z,6.30
2018-07-30T19:17:59.109Z,6.30
2018-07-30T19:20:26.155Z,5.90
2018-07-30T19:22:53.228Z,5.97
2018-07-30T19:25:20.261Z,5.90
2018-07-30T19:27:47.237Z,6.40
2018-07-30T19:30:14.253Z,5.93
2018-07-30T19:32:41.312Z,6.70
2018-07-30T19:35:08.485Z,6.30
2018-07-30T19:37:35.714Z,5.90
2018-07-30T19:40:03.046Z,5.77
2018-07-30T19:42:30.241Z,6.30
2018-07-30T19:44:57.472Z,6.40
2018-07-30T19:47:24.570Z,7.17
2018-07-30T19:49:51.561Z,7.33
2018-07-30T19:52:18.605Z,6.50
2018-07-30T19:54:45.781Z,5.77
2018-07-30T19:57:12.920Z,6.07
2018-07-30T19:59:39.909Z,6.30
2018-07-30T20:02:06.985Z,6.80
2018-07-30T20:04:34.024Z,6.03
2018-07-30T20:07:01.100Z,6.17
2018-07-30T20:09:28.027Z,6.50
2018-07-30T20:11:55.057Z,6.73
2018-07-30T20:14:22.033Z,7.00
2018-07-30T20:16:49.065Z,6.37
2018-07-30T20:19:16.081Z,6.80
2018-07-30T20:21:43.103Z,6.50
2018-07-30T20:24:10.085Z,7.17
2018-07-30T20:26:37.134Z,6.60
2018-07-30T20:29:04.261Z,7.53
2018-07-30T20:31:31.332Z,6.13
2018-07-30T20:33:58.745Z,7.07
2018-07-30T20:36:25.761Z,6.60
2018-07-30T20:38:53.297Z,7.57
2018-07-30T20:41:20.589Z,8.50
2018-07-30T20:43:47.834Z,6.00
2018-07-30T20:46:14.831Z,6.53
2018-07-30T20:48:41.956Z,6.37
2018-07-30T20:51:08.981Z,6.30
2018-07-30T20:53:36.161Z,7.07
2018-07-30T20:56:03.286Z,6.60
2018-07-30T20:58:30.309Z,6.77
2018-07-30T21:00:57.337Z,6.87
2018-07-30T21:03:24.317Z,6.43
2018-07-30T21:05:51.353Z,6.70
2018-07-30T21:08:18.366Z,6.73
2018-07-30T21:10:45.917Z,7.40
2018-07-30T21:13:14.359Z,6.50
2018-07-30T21:15:41.517Z,7.60
2018-07-30T21:18:08.569Z,7.37
2018-07-30T21:20:35.565Z,6.60
2018-07-30T21:23:02.977Z,7.17
2018-07-30T21:25:30.200Z,7.50
2018-07-30T21:27:57.412Z,6.70
2018-07-30T21:30:24.583Z,7.40
2018-07-30T21:32:51.574Z,6.90
2018-07-30T21:35:18.573Z,6.97
2018-07-30T21:37:45.577Z,6.80
2018-07-30T21:40:12.553Z,7.80
2018-07-30T21:42:39.571Z,6.77
2018-07-30T21:45:06.584Z,7.60
2018-07-30T21:47:33.614Z,7.63
2018-07-30T21:50:00.614Z,7.17
2018-07-30T21:52:27.689Z,7.60
2018-07-30T21:54:54.701Z,7.57
2018-07-30T21:57:21.793Z,7.40
2018-07-30T21:59:49.548Z,7.30
2018-07-30T22:02:16.593Z,7.03
2018-07-30T22:04:43.563Z,8.30
2018-07-30T22:07:10.618Z,7.10
2018-07-30T22:09:37.598Z,8.60
2018-07-30T22:12:04.664Z,7.90
2018-07-30T22:14:31.658Z,7.93
2018-07-30T22:16:58.673Z,9.13
2018-07-30T22:19:25.695Z,9.30
2018-07-30T22:21:53.053Z,8.80
2018-07-30T22:24:20.085Z,7.50
2018-07-30T22:26:47.186Z,8.40
2018-07-30T22:29:14.193Z,7.97
2018-07-30T22:31:41.337Z,8.40
2018-07-30T22:34:08.353Z,8.10
2018-07-30T22:36:35.341Z,8.67
2018-07-30T22:39:02.369Z,8.40
2018-07-30T22:41:29.437Z,8.30
2018-07-30T22:43:56.433Z,9.00
2018-07-30T22:46:23.436Z,8.53
2018-07-30T22:48:50.481Z,8.37
2018-07-30T22:51:17.465Z,8.57
2018-07-30T22:53:44.480Z,9.40
2018-07-30T22:56:11.456Z,8.10
2018-07-30T22:58:38.453Z,9.47
2018-07-30T23:01:05.544Z,8.87
2018-07-30T23:03:32.553Z,8.90
2018-07-30T23:05:59.548Z,8.43
2018-07-30T23:08:26.537Z,8.30
2018-07-30T23:10:53.529Z,8.50
2018-07-30T23:13:20.560Z,9.30
2018-07-30T23:15:47.549Z,9.10
2018-07-30T23:18:14.573Z,8.23
2018-07-30T23:20:41.640Z,9.10
2018-07-30T23:23:08.661Z,8.87
2018-07-30T23:25:35.665Z,9.13
2018-07-30T23:28:02.739Z,9.13
2018-07-30T23:30:29.725Z,7.73
2018-07-30T23:32:56.726Z,8.83
2018-07-30T23:35:23.698Z,8.30
2018-07-30T23:37:50.706Z,8.13
2018-07-30T23:40:17.681Z,8.27
2018-07-30T23:42:44.713Z,9.30
2018-07-30T23:45:11.686Z,8.00
2018-07-30T23:47:38.664Z,8.70
2018-07-30T23:50:05.685Z,8.23
2018-07-30T23:52:32.730Z,9.33
2018-07-30T23:54:59.782Z,9.03
2018-07-30T23:57:26.729Z,8.17
2018-07-30T23:59:54.306Z,9.20
